Time;durP1;ratioP1;P1;durP2;ratioP2;P2;SDS_P1;SDS_P2;PMS_P1;PMS_P2;Temp;Humidity;BMP_temperature;BMP_pressure;BME280_temperature;BME280_humidity;BME280_pressure;Samples;Min_cycle;Max_cycle;Signal;HPM_P1;HPM_P2
2022/11/14 00:01:05;;;;;;;2.10;0.30;;;29.10;54.30;;;;;;5088131;28;20176;-77
2022/11/14 00:03:33;;;;;;;2.13;0.43;;;29.10;55.10;;;;;;5072042;28;20693;-79
2022/11/14 00:06:06;;;;;;;0.60;0.60;;;29.00;54.00;;;;;;5072504;28;20287;-79
2022/11/14 00:08:34;;;;;;;1.03;0.67;;;28.80;54.30;;;;;;5072755;28;20168;-78
2022/11/14 00:11:02;;;;;;;1.03;0.30;;;29.00;56.60;;;;;;5070167;28;20533;-77
2022/11/14 00:13:30;;;;;;;0.10;0.10;;;28.90;53.70;;;;;;5071787;28;20255;-80
2022/11/14 00:15:58;;;;;;;0.30;0.20;;;28.70;53.40;;;;;;5069231;28;20211;-83
2022/11/14 00:18:26;;;;;;;1.07;0.33;;;28.70;52.80;;;;;;5052445;28;20173;-79
2022/11/14 00:20:54;;;;;;;1.53;0.50;;;28.20;52.40;;;;;;5069858;28;20176;-79
2022/11/14 00:23:22;;;;;;;1.20;0.30;;;28.50;54.20;;;;;;5072059;28;20183;-78
2022/11/14 00:25:50;;;;;;;2.60;0.50;;;28.80;56.40;;;;;;5087731;28;20183;-79
2022/11/14 00:28:18;;;;;;;2.63;0.77;;;28.10;55.40;;;;;;5073018;28;20176;-78
2022/11/14 00:30:49;;;;;;;2.20;0.73;;;28.10;57.20;;;;;;5072318;28;20184;-80
2022/11/14 00:33:19;;;;;;;5.57;0.50;;;28.30;58.70;;;;;;5080209;28;20305;-79
2022/11/14 00:35:57;;;;;;;5.83;0.50;;;28.70;55.20;;;;;;5077535;28;20601;-79
2022/11/14 00:38:25;;;;;;;1.80;0.40;;;29.20;56.20;;;;;;5077668;28;20176;-74
2022/11/14 00:40:53;;;;;;;4.33;0.70;;;29.10;52.50;;;;;;5104705;28;20176;-77
2022/11/14 00:43:21;;;;;;;4.00;0.60;;;29.10;55.80;;;;;;5088195;28;20183;-77
2022/11/14 00:45:49;;;;;;;2.50;0.60;;;28.60;52.10;;;;;;5070299;28;20188;-80
2022/11/14 00:48:17;;;;;;;4.90;0.30;;;28.60;52.40;;;;;;5072210;28;20184;-80
2022/11/14 00:50:45;;;;;;;1.73;0.30;;;28.80;51.80;;;;;;5070007;28;20187;-77
2022/11/14 00:53:13;;;;;;;1.20;0.50;;;28.90;53.20;;;;;;5058562;28;20206;-80
2022/11/14 00:55:42;;;;;;;2.83;0.50;;;28.90;49.50;;;;;;5072136;28;20568;-78
2022/11/14 00:58:10;;;;;;;0.73;0.30;;;28.50;49.00;;;;;;5072483;28;20244;-80
2022/11/14 01:00:38;;;;;;;1.23;0.40;;;28.30;46.90;;;;;;5072202;28;20237;-77
2022/11/14 01:03:06;;;;;;;3.03;0.40;;;28.40;47.80;;;;;;5071320;28;20291;-78
2022/11/14 01:05:39;;;;;;;1.67;0.50;;;28.60;52.00;;;;;;5064137;28;20183;-78
2022/11/14 01:08:07;;;;;;;1.70;0.50;;;28.50;46.90;;;;;;5052541;28;20181;-74
2022/11/14 01:10:38;;;;;;;2.73;0.50;;;29.00;49.30;;;;;;5052120;28;20763;-77
2022/11/14 01:13:06;;;;;;;2.27;0.30;;;28.70;49.30;;;;;;5059358;28;20455;-76
2022/11/14 01:15:37;;;;;;;2.57;0.47;;;28.50;48.90;;;;;;5071980;28;20204;-76
2022/11/14 01:18:05;;;;;;;4.20;0.57;;;28.70;50.50;;;;;;5071720;28;20225;-71
2022/11/14 01:20:33;;;;;;;3.50;0.60;;;28.90;48.10;;;;;;5071090;28;20257;-72
2022/11/14 01:23:01;;;;;;;2.90;0.57;;;29.10;51.80;;;;;;5071282;28;20188;-72
2022/11/14 01:25:28;;;;;;;2.10;0.30;;;29.60;52.70;;;;;;5071747;28;20237;-75
2022/11/14 01:27:56;;;;;;;2.67;0.40;;;29.60;49.70;;;;;;5071928;28;20526;-78
2022/11/14 01:30:24;;;;;;;0.77;0.30;;;29.60;46.30;;;;;;5071670;28;20753;-78
2022/11/14 01:32:52;;;;;;;2.47;0.40;;;29.50;46.90;;;;;;5071488;28;20184;-77
2022/11/14 01:35:20;;;;;;;0.57;0.30;;;29.20;48.10;;;;;;5072655;28;20195;-78
2022/11/14 01:37:47;;;;;;;2.43;0.57;;;29.30;49.80;;;;;;5072093;28;20180;-79
2022/11/14 01:40:15;;;;;;;1.37;0.47;;;29.50;48.00;;;;;;5071509;28;20305;-78
2022/11/14 01:43:03;;;;;;;3.00;0.47;;;29.50;46.90;;;;;;5075213;28;20180;-82
2022/11/14 01:45:53;;;;;;;0.27;0.20;;;29.00;41.70;;;;;;5075313;28;20184;-79
2022/11/14 01:48:57;;;;;;;3.60;0.20;;;29.00;42.70;;;;;;5075115;28;20575;-80
2022/11/14 01:51:48;;;;;;;1.27;0.30;;;29.10;45.40;;;;;;5075158;28;20679;-77
2022/11/14 01:54:29;;;;;;;5.80;0.67;;;29.30;44.90;;;;;;5074996;28;20186;-80
2022/11/14 01:57:02;;;;;;;3.20;0.40;;;29.60;44.40;;;;;;5075080;28;20302;-80
2022/11/14 01:59:37;;;;;;;1.30;0.20;;;29.30;42.00;;;;;;5074545;28;20707;-79
2022/11/14 02:02:22;;;;;;;1.33;0.33;;;29.50;42.00;;;;;;5074699;28;20342;-77
2022/11/14 02:05:12;;;;;;;0.50;0.20;;;29.70;42.70;;;;;;5074914;28;20192;-79
2022/11/14 02:07:41;;;;;;;2.47;0.57;;;30.10;41.60;;;;;;5074828;28;20180;-78
2022/11/14 02:10:20;;;;;;;7.50;0.60;;;29.80;41.20;;;;;;5074164;28;20208;-78
2022/11/14 02:12:49;;;;;;;0.73;0.40;;;29.10;39.30;;;;;;5067701;28;20217;-80
2022/11/14 02:15:17;;;;;;;4.13;0.40;;;28.60;39.10;;;;;;5074809;28;20191;-78
2022/11/14 02:17:45;;;;;;;0.87;0.23;;;29.00;42.50;;;;;;5075064;28;20180;-79
2022/11/14 02:20:13;;;;;;;1.20;0.20;;;28.90;40.50;;;;;;5074991;28;20180;-77
2022/11/14 02:22:42;;;;;;;0.83;0.33;;;29.10;43.70;;;;;;5074851;28;20229;-79
2022/11/14 02:25:12;;;;;;;2.83;0.40;;;29.40;42.00;;;;;;5075544;28;20176;-79
2022/11/14 02:27:41;;;;;;;2.33;0.40;;;29.00;42.10;;;;;;5075545;28;20207;-78
2022/11/14 02:30:15;;;;;;;3.00;0.60;;;28.30;42.80;;;;;;5077236;28;20238;-79
2022/11/14 02:32:43;;;;;;;0.60;0.40;;;28.60;42.10;;;;;;5074554;28;20176;-77
2022/11/14 02:35:11;;;;;;;3.30;0.53;;;28.90;40.00;;;;;;5053661;28;20242;-76
2022/11/14 02:37:40;;;;;;;0.40;0.27;;;29.30;38.80;;;;;;5056455;28;20219;-77
2022/11/14 02:40:08;;;;;;;1.70;0.33;;;29.10;37.70;;;;;;5064741;28;20204;-76
2022/11/14 02:42:36;;;;;;;2.53;0.30;;;29.30;38.80;;;;;;5058661;28;20188;-78
2022/11/14 02:45:05;;;;;;;2.90;0.37;;;29.30;37.60;;;;;;5057106;28;20181;-78
2022/11/14 02:47:33;;;;;;;2.13;0.27;;;29.00;36.70;;;;;;5061254;28;20206;-77
2022/11/14 02:50:01;;;;;;;2.90;0.37;;;29.10;37.30;;;;;;5071375;28;20249;-80
2022/11/14 02:52:28;;;;;;;2.30;0.63;;;28.60;35.90;;;;;;5061308;28;20532;-81
2022/11/14 02:54:56;;;;;;;1.67;0.40;;;29.00;40.80;;;;;;5062311;28;20664;-78
2022/11/14 02:57:24;;;;;;;0.63;0.20;;;28.30;39.40;;;;;;5060472;28;20208;-78
2022/11/14 02:59:52;;;;;;;0.20;0.20;;;27.30;45.90;;;;;;5056212;28;20211;-80
2022/11/14 03:02:21;;;;;;;4.27;0.33;;;26.70;51.50;;;;;;5059347;28;20184;-77
2022/11/14 03:04:48;;;;;;;4.27;0.40;;;27.00;54.50;;;;;;5058014;28;20197;-78
2022/11/14 03:07:16;;;;;;;6.87;0.43;;;27.40;54.60;;;;;;5057505;28;20223;-78
2022/11/14 03:09:43;;;;;;;4.17;0.37;;;27.90;57.20;;;;;;5068173;28;20193;-80
2022/11/14 03:12:11;;;;;;;1.33;0.30;;;28.00;55.30;;;;;;5063178;28;20212;-80
2022/11/14 03:14:38;;;;;;;2.17;0.50;;;27.90;53.70;;;;;;5066174;28;20191;-81
2022/11/14 03:17:05;;;;;;;2.27;0.40;;;27.60;52.60;;;;;;5056051;28;20212;-78
2022/11/14 03:19:33;;;;;;;1.53;0.30;;;27.90;54.90;;;;;;5056774;28;20593;-78
2022/11/14 03:22:01;;;;;;;1.73;0.57;;;28.10;52.10;;;;;;5060446;28;20188;-81
2022/11/14 03:24:28;;;;;;;2.50;0.57;;;28.10;53.60;;;;;;5077864;28;20187;-80
2022/11/14 03:26:56;;;;;;;0.17;0.17;;;28.00;52.70;;;;;;5077854;28;20580;-77
2022/11/14 03:29:23;;;;;;;3.30;0.50;;;28.10;53.80;;;;;;5078329;28;20176;-81
2022/11/14 03:31:51;;;;;;;2.77;0.40;;;27.90;55.20;;;;;;5077492;28;20179;-83
2022/11/14 03:34:18;;;;;;;0.83;0.30;;;28.00;52.00;;;;;;5064794;28;20527;-80
2022/11/14 03:36:45;;;;;;;1.20;0.47;;;27.60;53.80;;;;;;5076229;28;20294;-78
2022/11/14 03:39:13;;;;;;;1.47;0.30;;;28.00;56.40;;;;;;5077869;28;20176;-77
2022/11/14 03:41:40;;;;;;;3.07;0.30;;;28.00;55.30;;;;;;5076452;28;20184;-80
2022/11/14 03:44:11;;;;;;;1.33;0.33;;;28.00;56.30;;;;;;5061964;28;20183;-79
2022/11/14 03:46:38;;;;;;;5.57;1.20;;;28.20;56.90;;;;;;5076375;28;20187;-75
2022/11/14 03:49:06;;;;;;;3.57;0.60;;;28.10;56.20;;;;;;5075419;28;20403;-78
2022/11/14 03:51:33;;;;;;;3.17;0.90;;;28.50;59.00;;;;;;5076203;28;20184;-77
2022/11/14 03:54:01;;;;;;;0.27;0.20;;;28.60;55.50;;;;;;5077470;28;20186;-75
2022/11/14 03:56:28;;;;;;;3.17;0.20;;;28.60;55.90;;;;;;5076938;28;20222;-77
2022/11/14 03:58:56;;;;;;;1.83;0.53;;;28.70;56.10;;;;;;5092110;28;20211;-79
2022/11/14 04:01:24;;;;;;;1.80;0.30;;;28.20;53.90;;;;;;5075838;28;20187;-79
2022/11/14 04:03:51;;;;;;;2.17;0.33;;;27.30;49.90;;;;;;5092580;28;20727;-79
2022/11/14 04:06:19;;;;;;;0.87;0.30;;;27.20;53.50;;;;;;5067166;28;20219;-76
2022/11/14 04:08:46;;;;;;;2.33;0.50;;;27.90;54.50;;;;;;5071965;28;20188;-76
2022/11/14 04:11:14;;;;;;;3.00;0.53;;;28.20;50.90;;;;;;5074854;28;20176;-78
2022/11/14 04:13:41;;;;;;;1.33;0.30;;;28.50;50.00;;;;;;5074594;28;20182;-77
2022/11/14 04:16:08;;;;;;;4.63;0.50;;;28.50;51.00;;;;;;5090557;28;20950;-76
2022/11/14 04:18:36;;;;;;;3.33;0.30;;;28.80;50.20;;;;;;5074682;28;20180;-78
2022/11/14 04:21:03;;;;;;;0.73;0.20;;;28.70;48.10;;;;;;5072793;28;20188;-80
2022/11/14 04:23:31;;;;;;;1.40;0.50;;;28.40;49.80;;;;;;5073665;28;20214;-73
2022/11/14 04:25:58;;;;;;;2.20;0.37;;;27.90;52.90;;;;;;5073731;28;20224;-76
2022/11/14 04:28:26;;;;;;;2.43;0.40;;;27.80;51.80;;;;;;5074310;28;20283;-77
2022/11/14 04:30:53;;;;;;;1.17;0.30;;;28.00;51.70;;;;;;5075056;28;20179;-79
2022/11/14 04:33:20;;;;;;;3.27;0.37;;;27.70;52.10;;;;;;5075932;28;20183;-76
2022/11/14 04:35:48;;;;;;;0.47;0.20;;;27.90;55.40;;;;;;5075584;28;20196;-76
2022/11/14 04:38:16;;;;;;;0.77;0.30;;;28.60;54.90;;;;;;5075211;28;20192;-78
2022/11/14 04:40:50;;;;;;;4.00;0.30;;;28.90;51.30;;;;;;5056496;28;20271;-78
2022/11/14 04:43:19;;;;;;;0.30;0.17;;;28.90;51.00;;;;;;5075856;28;20262;-78
2022/11/14 04:45:47;;;;;;;1.50;0.30;;;28.90;49.50;;;;;;5074969;28;20179;-76
2022/11/14 04:48:15;;;;;;;1.20;0.30;;;29.00;43.50;;;;;;5072674;28;20263;-77
2022/11/14 04:50:42;;;;;;;1.83;0.40;;;29.00;44.50;;;;;;5072799;28;20176;-78
2022/11/14 04:53:09;;;;;;;0.60;0.40;;;29.10;44.70;;;;;;5073849;28;20175;-76
2022/11/14 04:55:37;;;;;;;2.20;0.50;;;29.00;44.10;;;;;;5074147;28;20681;-78
2022/11/14 04:58:04;;;;;;;2.03;0.20;;;28.70;41.60;;;;;;5073011;28;20172;-73
2022/11/14 05:00:32;;;;;;;0.73;0.40;;;28.20;42.30;;;;;;5073211;28;20183;-76
2022/11/14 05:03:00;;;;;;;0.30;0.20;;;28.20;44.40;;;;;;5072464;28;20251;-75
2022/11/14 05:05:27;;;;;;;1.73;0.30;;;28.60;44.80;;;;;;5072579;28;20610;-78
2022/11/14 05:07:55;;;;;;;3.07;0.30;;;28.50;43.00;;;;;;5074468;28;20172;-75
2022/11/14 05:10:22;;;;;;;1.30;0.40;;;28.80;43.60;;;;;;5071285;28;20207;-78
2022/11/14 05:12:53;;;;;;;0.30;0.17;;;28.90;41.70;;;;;;5051937;28;20181;-80
2022/11/14 05:15:21;;;;;;;0.70;0.50;;;29.00;43.10;;;;;;5073889;28;20188;-78
2022/11/14 05:17:48;;;;;;;0.37;0.20;;;29.30;43.50;;;;;;5077202;28;20183;-75
2022/11/14 05:20:16;;;;;;;2.93;0.30;;;29.50;41.10;;;;;;5094713;28;20184;-77
2022/11/14 05:22:44;;;;;;;0.60;0.40;;;29.30;41.10;;;;;;5068668;28;20217;-76
2022/11/14 05:25:11;;;;;;;1.17;0.30;;;28.70;42.70;;;;;;5059135;28;20185;-79
2022/11/14 05:27:39;;;;;;;1.47;0.30;;;28.60;44.60;;;;;;5076278;28;20233;-76
2022/11/14 05:30:07;;;;;;;1.20;0.30;;;28.60;43.30;;;;;;5077821;28;20180;-76
2022/11/14 05:32:35;;;;;;;2.30;0.30;;;28.80;41.40;;;;;;5078722;28;20187;-80
2022/11/14 05:35:03;;;;;;;1.33;0.50;;;28.20;43.10;;;;;;5078718;28;20180;-79
2022/11/14 05:37:34;;;;;;;2.43;0.40;;;28.50;44.80;;;;;;5079558;28;20277;-78
2022/11/14 05:40:03;;;;;;;1.10;0.30;;;28.30;44.60;;;;;;5059330;28;20172;-76
2022/11/14 05:42:30;;;;;;;3.53;0.50;;;28.10;45.10;;;;;;5078571;28;20180;-77
2022/11/14 05:44:58;;;;;;;4.07;0.47;;;27.80;46.20;;;;;;5080080;28;20176;-79
2022/11/14 05:47:25;;;;;;;6.83;1.50;;;27.60;46.80;;;;;;5083449;28;20184;-80
2022/11/14 05:49:52;;;;;;;2.67;0.50;;;27.30;45.50;;;;;;5083118;28;20175;-78
2022/11/14 05:52:20;;;;;;;0.77;0.30;;;27.50;46.90;;;;;;5081246;28;20188;-78
2022/11/14 05:54:47;;;;;;;2.73;0.87;;;28.20;49.30;;;;;;5079182;28;20229;-79
2022/11/14 05:57:16;;;;;;;0.47;0.37;;;28.40;48.60;;;;;;5076347;28;20218;-71
2022/11/14 05:59:43;;;;;;;1.63;0.40;;;28.30;48.00;;;;;;5076572;28;20641;-81
2022/11/14 06:02:11;;;;;;;1.63;0.37;;;28.30;46.60;;;;;;5075882;28;20215;-77
2022/11/14 06:04:38;;;;;;;2.97;0.50;;;28.20;47.50;;;;;;5075931;28;20195;-79
2022/11/14 06:07:06;;;;;;;1.00;0.47;;;28.40;47.50;;;;;;5076029;28;20240;-77
2022/11/14 06:09:33;;;;;;;0.63;0.20;;;28.30;46.90;;;;;;5075676;28;20237;-77
2022/11/14 06:12:04;;;;;;;3.70;0.30;;;28.20;44.10;;;;;;5092890;28;20195;-78
2022/11/14 06:14:32;;;;;;;0.87;0.20;;;27.60;41.70;;;;;;5077338;28;20234;-79
2022/11/14 06:16:59;;;;;;;2.10;0.30;;;27.10;42.80;;;;;;5078231;28;20254;-79
2022/11/14 06:19:27;;;;;;;3.40;0.30;;;27.00;42.80;;;;;;5077252;28;20187;-79
2022/11/14 06:21:54;;;;;;;2.00;0.30;;;27.00;40.50;;;;;;5076831;28;20180;-78
2022/11/14 06:24:21;;;;;;;1.17;0.37;;;27.30;41.40;;;;;;5092677;28;20617;-79
2022/11/14 06:26:49;;;;;;;0.40;0.20;;;27.40;40.60;;;;;;5077344;28;20213;-78
2022/11/14 06:29:16;;;;;;;3.60;0.33;;;27.30;43.70;;;;;;5076611;28;20180;-77
2022/11/14 06:31:44;;;;;;;0.70;0.30;;;26.90;51.60;;;;;;5076197;28;20219;-79
2022/11/14 06:34:12;;;;;;;2.63;0.50;;;26.80;55.20;;;;;;5077086;28;20618;-79
2022/11/14 06:36:39;;;;;;;2.97;0.50;;;26.90;56.80;;;;;;5092454;28;20231;-79
2022/11/14 06:39:07;;;;;;;3.03;0.70;;;26.90;57.30;;;;;;5080094;28;20770;-79
2022/11/14 06:41:34;;;;;;;0.90;0.50;;;26.90;57.40;;;;;;5081867;28;20213;-75
2022/11/14 06:44:01;;;;;;;2.97;0.93;;;26.80;54.20;;;;;;5084092;28;20176;-75
2022/11/14 06:46:29;;;;;;;2.87;0.70;;;26.90;55.90;;;;;;5074981;28;20208;-76
2022/11/14 06:48:56;;;;;;;2.50;0.80;;;26.70;59.50;;;;;;5073682;28;20179;-77
2022/11/14 06:51:24;;;;;;;3.23;0.70;;;26.70;60.30;;;;;;5075046;28;20191;-75
2022/11/14 06:53:51;;;;;;;2.67;0.57;;;26.70;64.90;;;;;;5061267;28;20176;-78
2022/11/14 06:56:19;;;;;;;5.27;0.47;;;26.80;67.70;;;;;;5064053;28;20219;-80
2022/11/14 06:58:49;;;;;;;1.00;0.40;;;27.00;64.10;;;;;;5058574;28;20638;-76
2022/11/14 07:01:19;;;;;;;3.03;0.30;;;26.90;59.20;;;;;;5064391;28;20191;-79
2022/11/14 07:03:47;;;;;;;0.93;0.30;;;26.70;56.20;;;;;;5064628;28;20228;-79
2022/11/14 07:06:17;;;;;;;0.60;0.37;;;26.50;57.70;;;;;;5077822;28;20184;-72
2022/11/14 07:08:44;;;;;;;0.20;0.20;;;26.60;60.90;;;;;;5084807;28;20187;-77
2022/11/14 07:11:21;;;;;;;1.40;0.40;;;26.60;59.20;;;;;;5083387;28;20210;-78
2022/11/14 07:13:57;;;;;;;0.67;0.37;;;26.50;63.70;;;;;;5077788;28;20262;-79
2022/11/14 07:16:30;;;;;;;3.47;0.30;;;26.50;63.20;;;;;;5077471;28;20611;-79
2022/11/14 07:18:59;;;;;;;0.50;0.30;;;26.30;64.50;;;;;;5077635;28;20184;-80
2022/11/14 07:21:28;;;;;;;1.07;0.50;;;26.10;63.60;;;;;;5078266;28;20192;-78
2022/11/14 07:23:56;;;;;;;0.90;0.40;;;25.90;65.20;;;;;;5077374;28;20305;-76
2022/11/14 07:26:24;;;;;;;1.40;0.40;;;25.50;64.10;;;;;;5093081;28;20316;-79
2022/11/14 07:28:53;;;;;;;2.63;0.37;;;25.20;67.50;;;;;;5076921;28;20180;-77
2022/11/14 07:31:21;;;;;;;1.87;0.40;;;24.90;69.20;;;;;;5077312;28;20204;-78
2022/11/14 07:33:49;;;;;;;1.37;0.40;;;24.80;73.30;;;;;;5074919;28;20194;-76
2022/11/14 07:36:17;;;;;;;1.90;0.40;;;24.70;75.80;;;;;;5073504;28;20207;-79
2022/11/14 07:38:45;;;;;;;1.00;0.40;;;24.60;74.30;;;;;;5079593;28;20549;-81
2022/11/14 07:41:14;;;;;;;1.10;0.40;;;24.60;77.00;;;;;;5082961;28;20168;-79
2022/11/14 07:43:42;;;;;;;0.40;0.30;;;24.60;76.40;;;;;;5080565;28;20180;-79
2022/11/14 07:46:15;;;;;;;1.10;0.40;;;24.80;78.40;;;;;;5082622;28;20637;-81
2022/11/14 07:48:43;;;;;;;1.17;0.20;;;24.90;79.30;;;;;;5078082;28;20190;-78
2022/11/14 07:51:16;;;;;;;4.03;0.50;;;25.00;75.00;;;;;;5091630;28;20206;-78
2022/11/14 07:53:44;;;;;;;2.60;0.30;;;25.20;73.60;;;;;;5079090;28;20202;-80
2022/11/14 07:56:16;;;;;;;4.23;0.40;;;25.40;71.50;;;;;;5095976;28;20220;-80
2022/11/14 07:58:43;;;;;;;1.13;0.30;;;25.20;69.40;;;;;;5101124;28;20179;-81
2022/11/14 08:01:15;;;;;;;1.77;0.40;;;24.90;72.60;;;;;;5080125;28;20213;-72
2022/11/14 08:03:43;;;;;;;0.90;0.40;;;24.60;72.90;;;;;;5079813;28;20254;-82
2022/11/14 08:06:12;;;;;;;0.80;0.50;;;24.40;74.50;;;;;;5079453;28;20187;-77
2022/11/14 08:08:40;;;;;;;1.77;0.50;;;24.40;78.40;;;;;;5075821;28;20179;-78
2022/11/14 08:11:08;;;;;;;5.00;0.50;;;24.30;80.30;;;;;;5075721;28;20187;-78
2022/11/14 08:13:35;;;;;;;1.80;0.40;;;24.20;85.60;;;;;;5092012;28;20186;-75
2022/11/14 08:16:09;;;;;;;3.67;0.50;;;24.10;82.80;;;;;;5087914;28;20575;-74
2022/11/14 08:18:36;;;;;;;1.60;0.60;;;24.00;77.70;;;;;;5071770;28;20550;-73
2022/11/14 08:21:10;;;;;;;2.77;0.47;;;23.90;81.60;;;;;;5066037;28;20259;-74
2022/11/14 08:23:37;;;;;;;0.30;0.30;;;23.60;81.60;;;;;;5068196;28;20258;-75
2022/11/14 08:26:05;;;;;;;0.27;0.27;;;23.50;76.30;;;;;;5058505;28;20215;-72
2022/11/14 08:28:32;;;;;;;0.30;0.27;;;23.40;72.70;;;;;;5072744;28;20558;-71
2022/11/14 08:31:01;;;;;;;2.63;0.63;;;23.30;72.30;;;;;;5073059;28;20170;-73
2022/11/14 08:33:31;;;;;;;1.47;0.40;;;23.30;72.30;;;;;;5072533;28;20180;-73
2022/11/14 08:36:02;;;;;;;0.53;0.40;;;23.20;72.80;;;;;;5069016;28;20210;-73
2022/11/14 08:38:31;;;;;;;1.77;0.30;;;23.10;73.30;;;;;;5070883;28;20194;-76
2022/11/14 08:41:00;;;;;;;0.50;0.30;;;23.00;70.90;;;;;;5053156;28;20173;-77
2022/11/14 08:43:28;;;;;;;3.80;0.40;;;23.00;70.30;;;;;;5052809;28;20176;-78
2022/11/14 08:46:00;;;;;;;1.10;0.40;;;22.90;72.00;;;;;;5069381;28;20184;-75
2022/11/14 08:48:28;;;;;;;0.30;0.30;;;22.90;76.00;;;;;;5080259;28;20174;-70
2022/11/14 08:50:56;;;;;;;2.23;0.40;;;22.70;75.90;;;;;;5090549;28;20311;-75
2022/11/14 08:53:24;;;;;;;0.73;0.40;;;22.70;78.70;;;;;;5081002;28;20214;-76
2022/11/14 08:55:51;;;;;;;2.10;0.40;;;22.60;80.80;;;;;;5087360;28;20202;-74
2022/11/14 08:58:18;;;;;;;1.30;0.40;;;22.60;81.60;;;;;;5072989;28;20172;-78
2022/11/14 09:00:46;;;;;;;1.47;0.40;;;22.50;84.50;;;;;;5072615;28;20181;-79
2022/11/14 09:03:14;;;;;;;0.57;0.30;;;22.50;86.30;;;;;;5071833;28;20230;-76
2022/11/14 09:05:43;;;;;;;2.53;0.33;;;22.40;86.50;;;;;;5072148;28;20228;-78
2022/11/14 09:08:10;;;;;;;1.20;0.30;;;22.40;89.50;;;;;;5072523;28;20194;-74
2022/11/14 09:10:41;;;;;;;0.20;0.20;;;22.40;89.20;;;;;;5072524;28;20172;-75
2022/11/14 09:13:09;;;;;;;3.00;0.60;;;22.30;91.10;;;;;;5071880;28;20183;-75
2022/11/14 09:15:37;;;;;;;2.13;0.33;;;22.30;91.90;;;;;;5070757;28;20201;-77
2022/11/14 09:18:04;;;;;;;2.10;0.40;;;22.30;93.00;;;;;;5088803;28;20190;-80
2022/11/14 09:20:31;;;;;;;2.17;0.50;;;22.30;96.60;;;;;;5074785;28;20168;-78
2022/11/14 09:23:00;;;;;;;0.90;0.30;;;22.30;99.90;;;;;;5073688;28;20646;-74
2022/11/14 09:25:29;;;;;;;1.17;0.50;;;22.20;97.90;;;;;;5073261;28;20649;-77
2022/11/14 09:27:58;;;;;;;1.50;0.40;;;22.10;99.90;;;;;;5072905;28;20241;-73
2022/11/14 09:30:26;;;;;;;0.90;0.40;;;22.00;99.90;;;;;;5073658;28;20228;-75
2022/11/14 09:32:58;;;;;;;3.63;0.50;;;22.00;99.90;;;;;;5086339;28;20180;-77
2022/11/14 09:35:30;;;;;;;2.40;0.50;;;22.00;99.90;;;;;;5064930;28;20179;-72
2022/11/14 09:38:02;;;;;;;0.33;0.33;;;21.90;99.90;;;;;;5052323;28;20191;-70
2022/11/14 09:40:41;;;;;;;2.10;0.47;;;21.80;99.90;;;;;;5051769;28;20188;-76
2022/11/14 09:43:11;;;;;;;2.33;0.40;;;21.70;99.90;;;;;;5052624;28;20180;-77
2022/11/14 09:45:48;;;;;;;1.47;0.67;;;21.70;99.90;;;;;;5071881;28;20193;-77
2022/11/14 09:48:19;;;;;;;3.03;0.70;;;21.60;99.90;;;;;;5072199;28;20534;-71
2022/11/14 09:51:13;;;;;;;4.27;0.70;;;21.50;99.90;;;;;;5072210;28;20221;-72
2022/11/14 09:54:15;;;;;;;3.53;0.70;;;21.40;99.90;;;;;;5071893;28;20173;-76
2022/11/14 09:56:43;;;;;;;0.40;0.40;;;21.30;99.90;;;;;;5073056;28;20305;-72
2022/11/14 09:59:13;;;;;;;2.93;0.50;;;21.20;99.90;;;;;;5073036;28;20180;-80
2022/11/14 10:02:11;;;;;;;1.13;0.57;;;21.10;99.90;;;;;;5074262;28;20183;-73
2022/11/14 10:04:43;;;;;;;3.40;0.60;;;20.90;99.90;;;;;;5070795;28;20196;-75
2022/11/14 10:07:16;;;;;;;1.10;0.60;;;20.80;99.90;;;;;;5054147;28;20275;-75
2022/11/14 10:10:05;;;;;;;4.00;0.50;;;20.70;99.90;;;;;;5057955;28;20529;-73
2022/11/14 10:12:41;;;;;;;1.53;0.90;;;20.60;99.90;;;;;;5070867;28;20191;-75
2022/11/14 10:15:30;;;;;;;1.20;0.60;;;20.40;99.90;;;;;;5076460;28;20176;-77
2022/11/14 10:18:03;;;;;;;4.50;0.80;;;20.30;99.90;;;;;;5076732;28;20211;-70
2022/11/14 10:20:40;;;;;;;1.07;0.50;;;20.20;99.90;;;;;;5075955;28;20259;-77
2022/11/14 10:23:28;;;;;;;0.30;0.30;;;20.10;99.90;;;;;;5075481;28;20258;-76
2022/11/14 10:26:16;;;;;;;2.17;0.57;;;19.90;99.90;;;;;;5050011;28;20238;-75
2022/11/14 10:29:17;;;;;;;1.20;0.67;;;19.80;99.90;;;;;;5056584;28;20179;-76
2022/11/14 10:31:53;;;;;;;2.43;0.80;;;19.60;99.90;;;;;;5056393;28;20174;-75
2022/11/14 10:34:26;;;;;;;4.43;1.10;;;19.60;99.90;;;;;;5056883;28;20188;-76
2022/11/14 10:37:03;;;;;;;2.37;1.00;;;19.50;99.90;;;;;;5055282;28;20208;-75
2022/11/14 10:39:42;;;;;;;1.20;0.70;;;19.50;99.90;;;;;;5067880;28;20664;-75
2022/11/14 10:42:21;;;;;;;1.40;0.80;;;19.40;99.90;;;;;;5075598;28;20187;-72
2022/11/14 10:45:02;;;;;;;1.03;0.70;;;19.40;99.90;;;;;;5075882;28;20177;-73
2022/11/14 10:47:39;;;;;;;1.90;0.77;;;19.30;99.90;;;;;;5074688;28;20258;-75
2022/11/14 10:50:28;;;;;;;0.87;0.70;;;19.40;99.90;;;;;;5075269;28;20278;-72
2022/11/14 10:53:00;;;;;;;1.33;0.70;;;19.40;99.90;;;;;;5075455;28;20171;-72
2022/11/14 10:55:28;;;;;;;5.87;0.73;;;19.30;99.90;;;;;;5075981;28;20547;-72
2022/11/14 10:57:56;;;;;;;3.50;0.70;;;19.30;99.90;;;;;;5074875;28;20213;-72
2022/11/14 11:00:25;;;;;;;1.43;0.60;;;19.30;99.90;;;;;;5075503;28;20183;-75
2022/11/14 11:02:55;;;;;;;2.97;0.70;;;19.30;99.90;;;;;;5076331;28;20300;-76
2022/11/14 11:05:30;;;;;;;2.43;0.60;;;19.30;99.90;;;;;;5076405;28;20181;-76
2022/11/14 11:13:39;;;;;;;0.57;0.53;;;19.50;99.90;;;;;;5074724;28;20231;-76
2022/11/14 11:16:11;;;;;;;3.13;0.50;;;19.50;99.90;;;;;;5075030;28;20619;-76
2022/11/14 11:18:39;;;;;;;0.70;0.50;;;19.40;99.90;;;;;;5074616;28;20647;-76
2022/11/14 11:21:10;;;;;;;0.93;0.50;;;19.20;99.90;;;;;;5075133;28;20181;-74
2022/11/14 11:23:55;;;;;;;3.03;0.40;;;19.20;99.90;;;;;;5075144;28;20172;-73
2022/11/14 11:26:31;;;;;;;1.47;0.40;;;19.10;99.90;;;;;;5075137;28;20172;-71
2022/11/14 11:29:09;;;;;;;1.03;0.40;;;19.10;99.90;;;;;;5046918;28;20182;-70
2022/11/14 11:32:07;;;;;;;1.27;0.47;;;19.20;99.90;;;;;;5074942;28;20179;-74
2022/11/14 11:34:35;;;;;;;1.23;0.70;;;19.40;99.90;;;;;;5073735;28;20191;-76
2022/11/14 11:37:28;;;;;;;0.53;0.40;;;19.40;99.90;;;;;;5078883;28;20285;-75
2022/11/14 11:40:00;;;;;;;1.17;0.60;;;19.40;99.90;;;;;;5075121;28;20166;-77
2022/11/14 11:43:02;;;;;;;1.27;0.47;;;19.40;99.90;;;;;;5075076;28;20160;-76
2022/11/14 11:45:32;;;;;;;0.43;0.40;;;19.30;99.90;;;;;;5074449;28;20172;-76
2022/11/14 11:48:21;;;;;;;1.70;0.50;;;19.30;99.90;;;;;;5074463;28;20173;-76
2022/11/14 11:50:49;;;;;;;2.33;0.50;;;19.30;99.90;;;;;;5074026;28;20195;-76
2022/11/14 11:53:27;;;;;;;0.93;0.40;;;19.20;99.90;;;;;;5074204;28;20180;-76
2022/11/14 11:56:00;;;;;;;4.57;0.40;;;19.20;99.90;;;;;;5074805;28;20199;-76
2022/11/14 11:58:41;;;;;;;1.03;0.30;;;19.20;99.90;;;;;;5089701;28;20272;-74
2022/11/14 12:01:12;;;;;;;0.73;0.47;;;19.20;99.90;;;;;;5034408;28;20676;-75
2022/11/14 12:03:51;;;;;;;1.37;0.63;;;19.20;99.90;;;;;;5033785;28;20275;-75
2022/11/14 12:06:24;;;;;;;1.00;0.50;;;19.10;99.90;;;;;;5045789;28;20256;-76
2022/11/14 12:09:24;;;;;;;0.30;0.30;;;19.20;99.90;;;;;;5073998;28;20188;-75
2022/11/14 12:12:07;;;;;;;0.87;0.40;;;19.10;99.90;;;;;;5074346;28;20751;-75
2022/11/14 12:15:33;;;;;;;2.07;0.37;;;19.10;99.90;;;;;;5034068;28;20258;-76
2022/11/14 12:18:06;;;;;;;1.97;0.60;;;19.10;99.90;;;;;;5028883;28;20208;-76
2022/11/14 12:21:26;;;;;;;0.40;0.40;;;19.00;99.90;;;;;;5067338;28;20649;-76
2022/11/14 12:24:11;;;;;;;2.97;0.60;;;19.00;99.90;;;;;;5044121;28;20200;-73
2022/11/14 12:27:08;;;;;;;4.23;0.87;;;18.90;99.90;;;;;;5053729;28;20206;-76
2022/11/14 12:30:03;;;;;;;1.33;0.40;;;18.80;99.90;;;;;;5062690;28;20250;-77
2022/11/14 12:32:39;;;;;;;0.90;0.40;;;18.70;99.90;;;;;;5073781;28;20179;-73
2022/11/14 12:35:14;;;;;;;5.40;1.33;;;18.60;99.90;;;;;;5073025;28;20194;-77
2022/11/14 12:37:46;;;;;;;1.07;0.60;;;18.70;99.90;;;;;;5089230;28;20235;-76
2022/11/14 12:40:24;;;;;;;3.23;0.63;;;18.90;99.90;;;;;;5073164;28;20336;-75
2022/11/14 12:42:52;;;;;;;1.00;0.50;;;19.00;99.90;;;;;;5088903;28;20178;-73
2022/11/14 12:45:43;;;;;;;5.33;0.53;;;19.10;99.90;;;;;;5072337;28;20187;-73
2022/11/14 12:48:25;;;;;;;4.53;0.60;;;19.10;99.90;;;;;;5070437;28;20544;-75
2022/11/14 12:50:57;;;;;;;4.70;0.87;;;19.10;99.90;;;;;;5072881;28;20180;-76
2022/11/14 12:53:36;;;;;;;7.20;1.20;;;19.10;99.90;;;;;;5073355;28;20172;-72
2022/11/14 12:56:07;;;;;;;5.77;1.20;;;19.10;99.90;;;;;;5073236;28;20260;-74
2022/11/14 12:58:37;;;;;;;4.40;1.20;;;19.00;99.90;;;;;;5073639;28;20571;-73
2022/11/14 13:01:30;;;;;;;2.67;0.77;;;19.00;99.90;;;;;;5088800;28;20188;-71
2022/11/14 13:04:04;;;;;;;4.80;0.80;;;18.90;99.90;;;;;;5064528;28;20234;-74
2022/11/14 13:07:10;;;;;;;4.00;1.20;;;18.90;99.90;;;;;;5073123;28;20225;-73
2022/11/14 13:09:56;;;;;;;3.43;1.10;;;18.80;99.90;;;;;;5064338;28;20192;-73
2022/11/14 13:24:15;;;;;;;2.83;0.63;;;18.10;99.90;;;;;;5073152;28;20210;-71
2022/11/14 13:26:48;;;;;;;2.73;0.73;;;18.10;99.90;;;;;;5072929;28;20204;-71
2022/11/14 13:29:40;;;;;;;1.37;0.97;;;18.10;99.90;;;;;;5073145;28;20548;-73